KBLI

Bellingham International Airport

Bellingham, Washington, USA
METAR KBLI 212053Z 22005KT 10SM CLR 15/09 A3000 RMK AO2 SLP166 T01500089 58011
Observed Flight Rules
Oct-21 @ 20:53 UTC (33 minutes ago) Visual Flight Rules
Wind Visibility Clouds
220° at 5 knots 10 miles
  • Clear skies
Temperatures Readings
Current 15°C / 59°F
Dewpoint 9°C / 48°F
Humidity 68%
Altimeter 30" Hg
Pressure 1016.6 hPa
Elevation 50
METAR KBLI 212053Z 22005KT 10SM CLR 15/09 A3000 RMK AO2 SLP166 T01500089 58011
Observed Flight Rules
Oct-21 @ 20:53 UTC
(33 minutes ago)
VFR
Wind Visibility
220° at 5 knots 10 miles
Clouds
  • Clear skies
Temperature Dewpoint
15°C / 59°F 9°C / 48°F
Humidity Altimeter Pressure
68% 30" Hg 1016.6 hPa